sensor_id;sensor_type;location;lat;lon;timestamp;pressure;altitude;pressure_sealevel;temperature;humidity
19890;BME280;10107;51.198;6.824;2022-12-07T00:04:02;-21422.81;;;3.88;100.00
19890;BME280;10107;51.198;6.824;2022-12-07T00:08:05;-21422.16;;;3.86;100.00
19890;BME280;10107;51.198;6.824;2022-12-07T00:12:06;-21420.41;;;3.79;100.00
19890;BME280;10107;51.198;6.824;2022-12-07T00:16:09;-21419.47;;;3.75;100.00
19890;BME280;10107;51.198;6.824;2022-12-07T00:20:13;-21419.47;;;3.75;100.00
19890;BME280;10107;51.198;6.824;2022-12-07T00:24:14;-21419.47;;;3.75;100.00
19890;BME280;10107;51.198;6.824;2022-12-07T00:28:16;-21420.00;;;3.77;100.00
19890;BME280;10107;51.198;6.824;2022-12-07T00:32:18;-21420.94;;;3.81;100.00
19890;BME280;10107;51.198;6.824;2022-12-07T00:36:22;-21420.81;;;3.81;100.00
19890;BME280;10107;51.198;6.824;2022-12-07T00:40:24;-21421.34;;;3.83;100.00
19890;BME280;10107;51.198;6.824;2022-12-07T00:44:26;-21421.88;;;3.85;100.00
19890;BME280;10107;51.198;6.824;2022-12-07T00:48:28;-21421.88;;;3.85;100.00
19890;BME280;10107;51.198;6.824;2022-12-07T00:52:31;-21422.16;;;3.86;100.00
19890;BME280;10107;51.198;6.824;2022-12-07T00:56:33;-21422.16;;;3.86;100.00
19890;BME280;10107;51.198;6.824;2022-12-07T01:00:35;-21422.53;;;3.87;100.00
19890;BME280;10107;51.198;6.824;2022-12-07T01:04:37;-21422.69;;;3.88;100.00
19890;BME280;10107;51.198;6.824;2022-12-07T01:08:40;-21422.41;;;3.87;100.00
19890;BME280;10107;51.198;6.824;2022-12-07T01:12:41;-21422.69;;;3.88;100.00
19890;BME280;10107;51.198;6.824;2022-12-07T01:16:43;-21422.81;;;3.88;100.00
19890;BME280;10107;51.198;6.824;2022-12-07T01:20:44;-21422.53;;;3.87;100.00
19890;BME280;10107;51.198;6.824;2022-12-07T01:24:47;-21422.69;;;3.88;100.00
19890;BME280;10107;51.198;6.824;2022-12-07T01:28:49;-21422.94;;;3.89;100.00
19890;BME280;10107;51.198;6.824;2022-12-07T01:32:51;-21423.06;;;3.89;100.00
19890;BME280;10107;51.198;6.824;2022-12-07T01:36:52;-21423.75;;;3.92;100.00
19890;BME280;10107;51.198;6.824;2022-12-07T01:40:55;-21423.47;;;3.91;100.00
19890;BME280;10107;51.198;6.824;2022-12-07T01:49:28;-21423.75;;;3.92;100.00
19890;BME280;10107;51.198;6.824;2022-12-07T01:53:30;-21423.22;;;3.90;100.00
19890;BME280;10107;51.198;6.824;2022-12-07T01:57:37;-21422.41;;;3.87;100.00
19890;BME280;10107;51.198;6.824;2022-12-07T02:01:39;-21421.63;;;3.84;100.00
19890;BME280;10107;51.198;6.824;2022-12-07T02:05:41;-21421.34;;;3.83;100.00
19890;BME280;10107;51.198;6.824;2022-12-07T02:09:44;-21422.16;;;3.86;100.00
19890;BME280;10107;51.198;6.824;2022-12-07T02:13:47;-21422.69;;;3.88;100.00
19890;BME280;10107;51.198;6.824;2022-12-07T02:17:50;-21422.00;;;3.85;100.00
19890;BME280;10107;51.198;6.824;2022-12-07T02:21:56;-21421.22;;;3.82;100.00
19890;BME280;10107;51.198;6.824;2022-12-07T02:26:07;-21420.53;;;3.80;100.00
19890;BME280;10107;51.198;6.824;2022-12-07T02:30:13;-21420.28;;;3.79;100.00
19890;BME280;10107;51.198;6.824;2022-12-07T02:34:18;-21419.59;;;3.76;100.00
19890;BME280;10107;51.198;6.824;2022-12-07T02:38:23;-21419.19;;;3.74;100.00
19890;BME280;10107;51.198;6.824;2022-12-07T02:42:30;-21419.59;;;3.76;100.00
19890;BME280;10107;51.198;6.824;2022-12-07T02:46:35;-21419.59;;;3.76;100.00
19890;BME280;10107;51.198;6.824;2022-12-07T02:50:38;-21418.94;;;3.73;100.00
19890;BME280;10107;51.198;6.824;2022-12-07T02:54:42;-21418.66;;;3.72;100.00
19890;BME280;10107;51.198;6.824;2022-12-07T02:58:46;-21418.66;;;3.72;100.00
19890;BME280;10107;51.198;6.824;2022-12-07T03:02:55;-21419.19;;;3.74;100.00
19890;BME280;10107;51.198;6.824;2022-12-07T03:07:00;-21418.94;;;3.73;100.00
19890;BME280;10107;51.198;6.824;2022-12-07T03:11:04;-21419.59;;;3.76;100.00
19890;BME280;10107;51.198;6.824;2022-12-07T03:15:09;-21419.47;;;3.75;100.00
19890;BME280;10107;51.198;6.824;2022-12-07T03:19:14;-21419.47;;;3.75;100.00
19890;BME280;10107;51.198;6.824;2022-12-07T03:23:18;-21419.06;;;3.74;100.00
19890;BME280;10107;51.198;6.824;2022-12-07T03:27:21;-21418.81;;;3.73;100.00
19890;BME280;10107;51.198;6.824;2022-12-07T03:31:25;-21418.66;;;3.72;100.00
19890;BME280;10107;51.198;6.824;2022-12-07T03:35:29;-21418.53;;;3.72;100.00
19890;BME280;10107;51.198;6.824;2022-12-07T03:39:43;-21418.66;;;3.72;100.00
19890;BME280;10107;51.198;6.824;2022-12-07T03:43:46;-21417.59;;;3.68;100.00
19890;BME280;10107;51.198;6.824;2022-12-07T03:47:48;-21417.06;;;3.66;100.00
19890;BME280;10107;51.198;6.824;2022-12-07T03:51:56;-21417.59;;;3.68;100.00
19890;BME280;10107;51.198;6.824;2022-12-07T03:56:02;-21416.66;;;3.65;100.00
19890;BME280;10107;51.198;6.824;2022-12-07T04:00:05;-21416.00;;;3.62;100.00
19890;BME280;10107;51.198;6.824;2022-12-07T04:04:12;-21415.06;;;3.59;100.00
19890;BME280;10107;51.198;6.824;2022-12-07T04:08:15;-21413.44;;;3.52;100.00
19890;BME280;10107;51.198;6.824;2022-12-07T04:12:17;-21411.97;;;3.47;100.00
19890;BME280;10107;51.198;6.824;2022-12-07T04:16:18;-21410.22;;;3.40;100.00
19890;BME280;10107;51.198;6.824;2022-12-07T04:20:20;-21409.84;;;3.39;100.00
19890;BME280;10107;51.198;6.824;2022-12-07T04:24:23;-21409.97;;;3.39;100.00
19890;BME280;10107;51.198;6.824;2022-12-07T04:28:25;-21410.50;;;3.41;100.00
19890;BME280;10107;51.198;6.824;2022-12-07T04:32:27;-21410.91;;;3.43;100.00
19890;BME280;10107;51.198;6.824;2022-12-07T04:36:28;-21411.31;;;3.44;100.00
19890;BME280;10107;51.198;6.824;2022-12-07T04:40:31;-21411.31;;;3.44;100.00
19890;BME280;10107;51.198;6.824;2022-12-07T04:44:33;-21411.16;;;3.44;100.00
19890;BME280;10107;51.198;6.824;2022-12-07T04:48:35;-21410.63;;;3.42;100.00
19890;BME280;10107;51.198;6.824;2022-12-07T04:52:36;-21410.38;;;3.41;100.00
19890;BME280;10107;51.198;6.824;2022-12-07T04:56:40;-21410.63;;;3.42;100.00
19890;BME280;10107;51.198;6.824;2022-12-07T05:00:41;-21409.84;;;3.39;100.00
19890;BME280;10107;51.198;6.824;2022-12-07T05:04:43;-21410.22;;;3.40;100.00
19890;BME280;10107;51.198;6.824;2022-12-07T05:08:45;-21410.09;;;3.40;100.00
19890;BME280;10107;51.198;6.824;2022-12-07T05:12:48;-21410.09;;;3.40;100.00
19890;BME280;10107;51.198;6.824;2022-12-07T05:16:50;-21409.03;;;3.35;100.00
19890;BME280;10107;51.198;6.824;2022-12-07T05:20:53;-21408.34;;;3.33;100.00
19890;BME280;10107;51.198;6.824;2022-12-07T05:24:55;-21408.22;;;3.32;100.00
19890;BME280;10107;51.198;6.824;2022-12-07T05:28:58;-21408.22;;;3.32;100.00
19890;BME280;10107;51.198;6.824;2022-12-07T05:33:00;-21408.75;;;3.34;100.00
19890;BME280;10107;51.198;6.824;2022-12-07T05:37:03;-21408.91;;;3.35;100.00
19890;BME280;10107;51.198;6.824;2022-12-07T05:41:05;-21409.16;;;3.36;100.00
19890;BME280;10107;51.198;6.824;2022-12-07T05:45:09;-21408.75;;;3.34;100.00
19890;BME280;10107;51.198;6.824;2022-12-07T05:49:11;-21408.75;;;3.34;100.00
19890;BME280;10107;51.198;6.824;2022-12-07T05:53:14;-21408.91;;;3.35;100.00
19890;BME280;10107;51.198;6.824;2022-12-07T05:57:16;-21408.75;;;3.34;100.00
19890;BME280;10107;51.198;6.824;2022-12-07T06:01:19;-21409.03;;;3.35;100.00
19890;BME280;10107;51.198;6.824;2022-12-07T06:05:21;-21409.84;;;3.39;100.00
19890;BME280;10107;51.198;6.824;2022-12-07T06:09:23;-21410.22;;;3.40;100.00
19890;BME280;10107;51.198;6.824;2022-12-07T06:13:27;-21410.50;;;3.41;100.00
19890;BME280;10107;51.198;6.824;2022-12-07T06:17:30;-21410.38;;;3.41;100.00
19890;BME280;10107;51.198;6.824;2022-12-07T06:21:31;-21410.91;;;3.43;100.00
19890;BME280;10107;51.198;6.824;2022-12-07T06:25:33;-21410.50;;;3.41;100.00
19890;BME280;10107;51.198;6.824;2022-12-07T06:29:34;-21409.56;;;3.37;100.00
19890;BME280;10107;51.198;6.824;2022-12-07T06:33:37;-21408.75;;;3.34;100.00
19890;BME280;10107;51.198;6.824;2022-12-07T06:37:39;-21409.03;;;3.35;100.00
19890;BME280;10107;51.198;6.824;2022-12-07T06:41:40;-21409.28;;;3.36;100.00
19890;BME280;10107;51.198;6.824;2022-12-07T06:45:41;-21409.56;;;3.37;100.00
19890;BME280;10107;51.198;6.824;2022-12-07T06:49:44;-21409.84;;;3.39;100.00
19890;BME280;10107;51.198;6.824;2022-12-07T06:53:46;-21409.56;;;3.37;100.00
19890;BME280;10107;51.198;6.824;2022-12-07T06:57:47;-21409.44;;;3.37;100.00
19890;BME280;10107;51.198;6.824;2022-12-07T07:01:49;-21409.16;;;3.36;100.00
19890;BME280;10107;51.198;6.824;2022-12-07T07:05:52;-21408.63;;;3.34;100.00
19890;BME280;10107;51.198;6.824;2022-12-07T07:09:53;-21408.09;;;3.32;100.00
19890;BME280;10107;51.198;6.824;2022-12-07T07:13:55;-21407.81;;;3.31;100.00
19890;BME280;10107;51.198;6.824;2022-12-07T07:18:02;-21407.16;;;3.28;100.00
19890;BME280;10107;51.198;6.824;2022-12-07T07:22:05;-21407.69;;;3.30;100.00
19890;BME280;10107;51.198;6.824;2022-12-07T07:26:06;-21406.88;;;3.27;100.00
19890;BME280;10107;51.198;6.824;2022-12-07T07:30:08;-21406.63;;;3.26;100.00
19890;BME280;10107;51.198;6.824;2022-12-07T07:34:10;-21405.94;;;3.24;100.00
19890;BME280;10107;51.198;6.824;2022-12-07T07:38:12;-21405.53;;;3.22;100.00
19890;BME280;10107;51.198;6.824;2022-12-07T07:42:14;-21406.75;;;3.27;100.00
19890;BME280;10107;51.198;6.824;2022-12-07T07:46:17;-21408.63;;;3.34;100.00
19890;BME280;10107;51.198;6.824;2022-12-07T07:50:19;-21411.16;;;3.44;100.00
19890;BME280;10107;51.198;6.824;2022-12-07T07:54:22;-21411.44;;;3.45;100.00
19890;BME280;10107;51.198;6.824;2022-12-07T07:58:23;-21409.56;;;3.37;100.00
19890;BME280;10107;51.198;6.824;2022-12-07T08:02:25;-21406.88;;;3.27;100.00
19890;BME280;10107;51.198;6.824;2022-12-07T08:06:29;-21405.53;;;3.22;100.00
19890;BME280;10107;51.198;6.824;2022-12-07T08:10:32;-21404.22;;;3.17;100.00
19890;BME280;10107;51.198;6.824;2022-12-07T08:14:35;-21404.22;;;3.17;100.00
19890;BME280;10107;51.198;6.824;2022-12-07T08:18:37;-21406.06;;;3.24;100.00
19890;BME280;10107;51.198;6.824;2022-12-07T08:22:39;-21410.91;;;3.43;100.00
19890;BME280;10107;51.198;6.824;2022-12-07T08:26:42;-21421.34;;;3.83;100.00
19890;BME280;10107;51.198;6.824;2022-12-07T08:30:43;-21440.19;;;4.55;100.00
19890;BME280;10107;51.198;6.824;2022-12-07T08:34:45;-21448.75;;;4.88;100.00
19890;BME280;10107;51.198;6.824;2022-12-07T08:38:46;-21447.00;;;4.81;100.00
19890;BME280;10107;51.198;6.824;2022-12-07T08:42:49;-21442.75;;;4.65;100.00
19890;BME280;10107;51.198;6.824;2022-12-07T08:46:51;-21436.44;;;4.41;100.00
19890;BME280;10107;51.198;6.824;2022-12-07T08:50:55;-21433.38;;;4.29;100.00
19890;BME280;10107;51.198;6.824;2022-12-07T08:54:56;-21433.66;;;4.30;100.00
19890;BME280;10107;51.198;6.824;2022-12-07T08:59:00;-21435.91;;;4.39;100.00
19890;BME280;10107;51.198;6.824;2022-12-07T09:03:01;-21441.66;;;4.61;100.00
19890;BME280;10107;51.198;6.824;2022-12-07T09:07:03;-21449.41;;;4.90;100.00
19890;BME280;10107;51.198;6.824;2022-12-07T09:11:05;-21458.78;;;5.26;100.00
19890;BME280;10107;51.198;6.824;2022-12-07T09:15:08;-21472.53;;;5.79;100.00
19890;BME280;10107;51.198;6.824;2022-12-07T09:19:09;-21481.59;;;6.14;100.00
19890;BME280;10107;51.198;6.824;2022-12-07T09:23:11;-21486.66;;;6.33;100.00
19890;BME280;10107;51.198;6.824;2022-12-07T09:27:12;-21487.72;;;6.38;100.00
19890;BME280;10107;51.198;6.824;2022-12-07T09:31:15;-21488.94;;;6.42;100.00
19890;BME280;10107;51.198;6.824;2022-12-07T09:35:17;-21491.72;;;6.53;100.00
19890;BME280;10107;51.198;6.824;2022-12-07T09:39:18;-21500.13;;;6.85;100.00
19890;BME280;10107;51.198;6.824;2022-12-07T09:43:20;-21495.31;;;6.67;100.00
19890;BME280;10107;51.198;6.824;2022-12-07T09:47:24;-21486.41;;;6.32;100.00
19890;BME280;10107;51.198;6.824;2022-12-07T09:51:26;-21480.38;;;6.09;100.00
19890;BME280;10107;51.198;6.824;2022-12-07T09:55:27;-21478.00;;;6.00;100.00
19890;BME280;10107;51.198;6.824;2022-12-07T09:59:30;-21478.13;;;6.01;100.00
19890;BME280;10107;51.198;6.824;2022-12-07T10:03:33;-21481.31;;;6.13;100.00
19890;BME280;10107;51.198;6.824;2022-12-07T10:07:36;-21483.84;;;6.23;100.00
19890;BME280;10107;51.198;6.824;2022-12-07T10:15:55;-21486.25;;;6.32;100.00
19890;BME280;10107;51.198;6.824;2022-12-07T10:20:11;-21490.41;;;6.48;100.00
19890;BME280;10107;51.198;6.824;2022-12-07T10:24:14;-21492.00;;;6.54;100.00
19890;BME280;10107;51.198;6.824;2022-12-07T10:28:16;-21485.19;;;6.28;100.00
19890;BME280;10107;51.198;6.824;2022-12-07T10:32:27;-21480.66;;;6.10;100.00
19890;BME280;10107;51.198;6.824;2022-12-07T10:36:34;-21480.38;;;6.09;100.00
19890;BME280;10107;51.198;6.824;2022-12-07T10:40:36;-21483.31;;;6.21;100.00
19890;BME280;10107;51.198;6.824;2022-12-07T10:44:38;-21483.31;;;6.21;100.00
19890;BME280;10107;51.198;6.824;2022-12-07T10:48:44;-21489.06;;;6.43;100.00
19890;BME280;10107;51.198;6.824;2022-12-07T10:53:12;-21492.94;;;6.58;100.00
19890;BME280;10107;51.198;6.824;2022-12-07T10:57:24;-21491.72;;;6.53;100.00
19890;BME280;10107;51.198;6.824;2022-12-07T11:01:30;-21494.13;;;6.62;100.00
19890;BME280;10107;51.198;6.824;2022-12-07T11:05:35;-21502.13;;;6.93;100.00
19890;BME280;10107;51.198;6.824;2022-12-07T11:09:49;-21539.63;;;8.38;94.32
19890;BME280;10107;51.198;6.824;2022-12-07T11:13:54;-21554.13;;;8.94;90.23
19890;BME280;10107;51.198;6.824;2022-12-07T11:18:00;-21568.47;;;9.49;85.33
19890;BME280;10107;51.198;6.824;2022-12-07T11:22:06;-21560.22;;;9.17;83.41
19890;BME280;10107;51.198;6.824;2022-12-07T11:26:13;-21544.28;;;8.56;85.38
19890;BME280;10107;51.198;6.824;2022-12-07T11:30:18;-21550.28;;;8.79;83.81
19890;BME280;10107;51.198;6.824;2022-12-07T11:34:23;-21548.94;;;8.74;83.87
19890;BME280;10107;51.198;6.824;2022-12-07T11:38:30;-21536.31;;;8.25;87.48
19890;BME280;10107;51.198;6.824;2022-12-07T11:42:36;-21538.19;;;8.32;87.08
19890;BME280;10107;51.198;6.824;2022-12-07T11:46:43;-21537.66;;;8.30;88.21
19890;BME280;10107;51.198;6.824;2022-12-07T11:50:47;-21546.41;;;8.64;87.53
19890;BME280;10107;51.198;6.824;2022-12-07T11:54:51;-21557.03;;;9.05;83.95
19890;BME280;10107;51.198;6.824;2022-12-07T11:58:56;-21557.03;;;9.05;83.52
19890;BME280;10107;51.198;6.824;2022-12-07T12:03:01;-21553.06;;;8.89;84.32
19890;BME280;10107;51.198;6.824;2022-12-07T12:07:05;-21549.47;;;8.76;84.93
19890;BME280;10107;51.198;6.824;2022-12-07T12:11:09;-21544.81;;;8.58;87.39
19890;BME280;10107;51.198;6.824;2022-12-07T12:15:18;-21541.63;;;8.45;88.63
19890;BME280;10107;51.198;6.824;2022-12-07T12:19:26;-21532.06;;;8.08;88.91
19890;BME280;10107;51.198;6.824;2022-12-07T12:23:35;-21521.44;;;7.67;90.40
19890;BME280;10107;51.198;6.824;2022-12-07T12:27:37;-21525.94;;;7.85;90.75
19890;BME280;10107;51.198;6.824;2022-12-07T12:31:41;-21533.25;;;8.13;90.30
19890;BME280;10107;51.198;6.824;2022-12-07T12:35:44;-21534.06;;;8.16;84.36
19890;BME280;10107;51.198;6.824;2022-12-07T12:40:01;-21535.53;;;8.22;87.15
19890;BME280;10107;51.198;6.824;2022-12-07T12:48:31;-21547.88;;;8.69;83.74
19890;BME280;10107;51.198;6.824;2022-12-07T12:56:57;-21522.22;;;7.70;86.39
19890;BME280;10107;51.198;6.824;2022-12-07T13:05:37;-21507.72;;;7.14;90.45
19890;BME280;10107;51.198;6.824;2022-12-07T13:09:41;-21504.38;;;7.02;92.58
19890;BME280;10107;51.198;6.824;2022-12-07T13:13:45;-21501.06;;;6.89;93.01
19890;BME280;10107;51.198;6.824;2022-12-07T13:17:58;-21501.44;;;6.90;93.91
19890;BME280;10107;51.198;6.824;2022-12-07T13:22:02;-21500.00;;;6.85;92.87
19890;BME280;10107;51.198;6.824;2022-12-07T13:26:11;-21496.66;;;6.72;93.32
19890;BME280;10107;51.198;6.824;2022-12-07T13:30:16;-21495.06;;;6.66;93.89
19890;BME280;10107;51.198;6.824;2022-12-07T13:34:29;-21492.78;;;6.57;95.62
19890;BME280;10107;51.198;6.824;2022-12-07T13:38:33;-21489.72;;;6.45;96.07
19890;BME280;10107;51.198;6.824;2022-12-07T13:42:37;-21485.31;;;6.28;95.93
19890;BME280;10107;51.198;6.824;2022-12-07T13:46:44;-21483.72;;;6.22;97.50
19890;BME280;10107;51.198;6.824;2022-12-07T13:50:52;-21485.72;;;6.30;97.28
19890;BME280;10107;51.198;6.824;2022-12-07T13:54:57;-21486.41;;;6.32;97.28
19890;BME280;10107;51.198;6.824;2022-12-07T13:58:59;-21488.53;;;6.41;97.55
19890;BME280;10107;51.198;6.824;2022-12-07T14:03:02;-21491.19;;;6.51;96.92
19890;BME280;10107;51.198;6.824;2022-12-07T14:07:18;-21491.84;;;6.53;95.00
19890;BME280;10107;51.198;6.824;2022-12-07T14:11:21;-21488.53;;;6.41;94.51
19890;BME280;10107;51.198;6.824;2022-12-07T14:15:23;-21484.13;;;6.24;94.49
19890;BME280;10107;51.198;6.824;2022-12-07T14:19:43;-21481.06;;;6.12;95.17
19890;BME280;10107;51.198;6.824;2022-12-07T14:23:46;-21480.66;;;6.10;95.41
19890;BME280;10107;51.198;6.824;2022-12-07T14:28:04;-21481.19;;;6.12;95.42
19890;BME280;10107;51.198;6.824;2022-12-07T14:36:28;-21477.47;;;5.98;97.26
19890;BME280;10107;51.198;6.824;2022-12-07T14:40:30;-21475.72;;;5.91;97.81
19890;BME280;10107;51.198;6.824;2022-12-07T14:44:33;-21472.66;;;5.80;98.86
19890;BME280;10107;51.198;6.824;2022-12-07T14:48:35;-21468.13;;;5.62;100.00
19890;BME280;10107;51.198;6.824;2022-12-07T14:52:37;-21463.19;;;5.43;100.00
19890;BME280;10107;51.198;6.824;2022-12-07T14:56:41;-21458.78;;;5.26;100.00
19890;BME280;10107;51.198;6.824;2022-12-07T15:00:45;-21456.09;;;5.16;100.00
19890;BME280;10107;51.198;6.824;2022-12-07T15:04:48;-21453.16;;;5.05;100.00
19890;BME280;10107;51.198;6.824;2022-12-07T15:08:49;-21450.75;;;4.95;100.00
19890;BME280;10107;51.198;6.824;2022-12-07T15:12:51;-21448.88;;;4.88;100.00
19890;BME280;10107;51.198;6.824;2022-12-07T15:16:54;-21448.22;;;4.86;100.00
19890;BME280;10107;51.198;6.824;2022-12-07T15:20:56;-21448.22;;;4.86;100.00
19890;BME280;10107;51.198;6.824;2022-12-07T15:24:57;-21448.47;;;4.87;100.00
19890;BME280;10107;51.198;6.824;2022-12-07T15:28:59;-21448.88;;;4.88;100.00
19890;BME280;10107;51.198;6.824;2022-12-07T15:33:02;-21449.41;;;4.90;100.00
19890;BME280;10107;51.198;6.824;2022-12-07T15:37:03;-21449.28;;;4.90;100.00
19890;BME280;10107;51.198;6.824;2022-12-07T15:41:05;-21448.09;;;4.85;100.00
19890;BME280;10107;51.198;6.824;2022-12-07T15:45:07;-21445.81;;;4.76;100.00
19890;BME280;10107;51.198;6.824;2022-12-07T15:49:12;-21444.75;;;4.72;100.00
19890;BME280;10107;51.198;6.824;2022-12-07T15:53:14;-21443.81;;;4.69;100.00
19890;BME280;10107;51.198;6.824;2022-12-07T15:57:15;-21442.47;;;4.64;100.00
19890;BME280;10107;51.198;6.824;2022-12-07T16:01:17;-21440.34;;;4.55;100.00
19890;BME280;10107;51.198;6.824;2022-12-07T16:05:21;-21438.19;;;4.47;100.00
19890;BME280;10107;51.198;6.824;2022-12-07T16:09:22;-21436.59;;;4.41;100.00
19890;BME280;10107;51.198;6.824;2022-12-07T16:13:24;-21435.25;;;4.36;100.00
19890;BME280;10107;51.198;6.824;2022-12-07T16:17:25;-21434.19;;;4.32;100.00
19890;BME280;10107;51.198;6.824;2022-12-07T16:21:28;-21432.44;;;4.25;100.00
19890;BME280;10107;51.198;6.824;2022-12-07T16:25:29;-21432.31;;;4.25;100.00
19890;BME280;10107;51.198;6.824;2022-12-07T16:29:31;-21431.50;;;4.22;100.00
19890;BME280;10107;51.198;6.824;2022-12-07T16:33:34;-21430.84;;;4.19;100.00
19890;BME280;10107;51.198;6.824;2022-12-07T16:37:38;-21430.69;;;4.19;100.00
19890;BME280;10107;51.198;6.824;2022-12-07T16:41:39;-21430.69;;;4.19;100.00
19890;BME280;10107;51.198;6.824;2022-12-07T16:45:41;-21430.31;;;4.17;100.00
19890;BME280;10107;51.198;6.824;2022-12-07T16:49:43;-21431.09;;;4.20;100.00
19890;BME280;10107;51.198;6.824;2022-12-07T16:53:47;-21430.44;;;4.18;100.00
19890;BME280;10107;51.198;6.824;2022-12-07T16:57:49;-21430.44;;;4.18;100.00
19890;BME280;10107;51.198;6.824;2022-12-07T17:01:50;-21430.69;;;4.19;100.00
19890;BME280;10107;51.198;6.824;2022-12-07T17:05:53;-21430.31;;;4.17;100.00
19890;BME280;10107;51.198;6.824;2022-12-07T17:09:56;-21430.56;;;4.18;100.00
19890;BME280;10107;51.198;6.824;2022-12-07T17:13:57;-21430.97;;;4.20;100.00
19890;BME280;10107;51.198;6.824;2022-12-07T17:18:18;-21431.25;;;4.21;100.00
19890;BME280;10107;51.198;6.824;2022-12-07T17:22:21;-21431.25;;;4.21;100.00
19890;BME280;10107;51.198;6.824;2022-12-07T17:26:24;-21431.63;;;4.22;100.00
19890;BME280;10107;51.198;6.824;2022-12-07T17:30:26;-21431.78;;;4.23;100.00
19890;BME280;10107;51.198;6.824;2022-12-07T17:34:28;-21431.91;;;4.23;100.00
19890;BME280;10107;51.198;6.824;2022-12-07T17:38:29;-21431.38;;;4.21;100.00
19890;BME280;10107;51.198;6.824;2022-12-07T17:42:32;-21431.25;;;4.21;100.00
19890;BME280;10107;51.198;6.824;2022-12-07T17:46:37;-21430.69;;;4.19;100.00
19890;BME280;10107;51.198;6.824;2022-12-07T17:50:39;-21430.31;;;4.17;100.00
19890;BME280;10107;51.198;6.824;2022-12-07T17:54:58;-21429.63;;;4.14;100.00
19890;BME280;10107;51.198;6.824;2022-12-07T17:59:01;-21429.38;;;4.13;100.00
19890;BME280;10107;51.198;6.824;2022-12-07T18:03:04;-21428.56;;;4.10;100.00
19890;BME280;10107;51.198;6.824;2022-12-07T18:07:06;-21427.91;;;4.08;100.00
19890;BME280;10107;51.198;6.824;2022-12-07T18:11:08;-21427.38;;;4.06;100.00
19890;BME280;10107;51.198;6.824;2022-12-07T18:15:11;-21426.97;;;4.04;100.00
19890;BME280;10107;51.198;6.824;2022-12-07T18:19:12;-21426.56;;;4.03;100.00
19890;BME280;10107;51.198;6.824;2022-12-07T18:23:16;-21425.75;;;4.00;100.00
19890;BME280;10107;51.198;6.824;2022-12-07T18:27:18;-21426.16;;;4.01;100.00
19890;BME280;10107;51.198;6.824;2022-12-07T18:31:22;-21426.56;;;4.03;100.00
19890;BME280;10107;51.198;6.824;2022-12-07T18:35:24;-21426.56;;;4.03;100.00
19890;BME280;10107;51.198;6.824;2022-12-07T18:39:27;-21426.16;;;4.01;100.00
19890;BME280;10107;51.198;6.824;2022-12-07T18:43:29;-21425.09;;;3.97;100.00
19890;BME280;10107;51.198;6.824;2022-12-07T18:47:32;-21424.28;;;3.94;100.00
19890;BME280;10107;51.198;6.824;2022-12-07T18:51:33;-21423.47;;;3.91;100.00
19890;BME280;10107;51.198;6.824;2022-12-07T18:55:35;-21422.94;;;3.89;100.00
19890;BME280;10107;51.198;6.824;2022-12-07T18:59:36;-21422.53;;;3.87;100.00
19890;BME280;10107;51.198;6.824;2022-12-07T19:03:50;-21422.28;;;3.86;100.00
19890;BME280;10107;51.198;6.824;2022-12-07T19:07:53;-21420.94;;;3.81;100.00
19890;BME280;10107;51.198;6.824;2022-12-07T19:11:55;-21419.47;;;3.75;100.00
19890;BME280;10107;51.198;6.824;2022-12-07T19:16:00;-21418.00;;;3.70;100.00
19890;BME280;10107;51.198;6.824;2022-12-07T19:20:10;-21416.78;;;3.65;100.00
19890;BME280;10107;51.198;6.824;2022-12-07T19:24:12;-21416.00;;;3.62;100.00
19890;BME280;10107;51.198;6.824;2022-12-07T19:28:14;-21416.25;;;3.63;100.00
19890;BME280;10107;51.198;6.824;2022-12-07T19:32:16;-21415.47;;;3.60;100.00
19890;BME280;10107;51.198;6.824;2022-12-07T19:36:19;-21414.13;;;3.55;100.00
19890;BME280;10107;51.198;6.824;2022-12-07T19:40:22;-21413.84;;;3.54;100.00
19890;BME280;10107;51.198;6.824;2022-12-07T19:44:24;-21413.72;;;3.53;100.00
19890;BME280;10107;51.198;6.824;2022-12-07T19:48:26;-21412.78;;;3.50;100.00
19890;BME280;10107;51.198;6.824;2022-12-07T19:52:29;-21413.03;;;3.51;100.00
19890;BME280;10107;51.198;6.824;2022-12-07T19:56:30;-21412.63;;;3.49;100.00
19890;BME280;10107;51.198;6.824;2022-12-07T20:00:32;-21413.31;;;3.52;100.00
19890;BME280;10107;51.198;6.824;2022-12-07T20:04:33;-21414.91;;;3.58;100.00
19890;BME280;10107;51.198;6.824;2022-12-07T20:08:37;-21414.91;;;3.58;100.00
19890;BME280;10107;51.198;6.824;2022-12-07T20:12:38;-21414.38;;;3.56;100.00
19890;BME280;10107;51.198;6.824;2022-12-07T20:16:57;-21414.13;;;3.55;100.00
19890;BME280;10107;51.198;6.824;2022-12-07T20:21:00;-21413.03;;;3.51;100.00
19890;BME280;10107;51.198;6.824;2022-12-07T20:25:04;-21412.38;;;3.48;100.00
19890;BME280;10107;51.198;6.824;2022-12-07T20:29:05;-21411.69;;;3.46;100.00
19890;BME280;10107;51.198;6.824;2022-12-07T20:33:07;-21410.91;;;3.43;100.00
19890;BME280;10107;51.198;6.824;2022-12-07T20:37:09;-21410.09;;;3.40;100.00
19890;BME280;10107;51.198;6.824;2022-12-07T20:41:14;-21409.03;;;3.35;100.00
19890;BME280;10107;51.198;6.824;2022-12-07T20:45:33;-21407.97;;;3.31;100.00
19890;BME280;10107;51.198;6.824;2022-12-07T20:49:36;-21407.28;;;3.29;100.00
19890;BME280;10107;51.198;6.824;2022-12-07T20:53:37;-21406.63;;;3.26;100.00
19890;BME280;10107;51.198;6.824;2022-12-07T20:57:40;-21406.06;;;3.24;100.00
19890;BME280;10107;51.198;6.824;2022-12-07T21:01:42;-21405.81;;;3.23;100.00
19890;BME280;10107;51.198;6.824;2022-12-07T21:05:44;-21405.28;;;3.21;100.00
19890;BME280;10107;51.198;6.824;2022-12-07T21:09:46;-21404.88;;;3.20;100.00
19890;BME280;10107;51.198;6.824;2022-12-07T21:13:49;-21404.47;;;3.18;100.00
19890;BME280;10107;51.198;6.824;2022-12-07T21:17:51;-21404.22;;;3.17;100.00
19890;BME280;10107;51.198;6.824;2022-12-07T21:21:52;-21403.94;;;3.16;100.00
19890;BME280;10107;51.198;6.824;2022-12-07T21:25:55;-21403.81;;;3.15;100.00
19890;BME280;10107;51.198;6.824;2022-12-07T21:29:58;-21404.06;;;3.16;100.00
19890;BME280;10107;51.198;6.824;2022-12-07T21:34:00;-21404.22;;;3.17;100.00
19890;BME280;10107;51.198;6.824;2022-12-07T21:38:02;-21404.47;;;3.18;100.00
19890;BME280;10107;51.198;6.824;2022-12-07T21:42:05;-21404.22;;;3.17;100.00
19890;BME280;10107;51.198;6.824;2022-12-07T21:46:08;-21403.66;;;3.15;100.00